Time;durP1;ratioP1;P1;durP2;ratioP2;P2;SDS_P1;SDS_P2;PMS_P1;PMS_P2;Temp;Humidity;BMP_temperature;BMP_pressure;BME280_temperature;BME280_humidity;BME280_pressure;Samples;Min_cycle;Max_cycle;Signal;HPM_P1;HPM_P2
2021/06/18 00:02:11;;;;;;;3.90;2.12;;;;;;;20.52;73.88;101011.59;1738409;81;20945;-42
2021/06/18 00:04:38;;;;;;;4.60;1.65;;;;;;;20.49;73.80;101013.23;1740676;81;21440;-42
2021/06/18 00:07:05;;;;;;;2.02;1.22;;;;;;;20.47;74.03;101011.66;1750348;80;21012;-42
2021/06/18 00:09:31;;;;;;;8.25;1.40;;;;;;;20.45;74.58;101007.73;1751387;80;20929;-42
2021/06/18 00:11:58;;;;;;;2.42;1.42;;;;;;;20.43;73.31;101001.59;1743552;80;20996;-40
2021/06/18 00:14:27;;;;;;;3.40;2.10;;;;;;;20.41;73.61;101009.03;1741302;80;21482;-41
2021/06/18 00:16:53;;;;;;;5.90;1.87;;;;;;;20.40;73.44;100997.81;1750737;80;20968;-41
2021/06/18 00:19:20;;;;;;;3.55;1.37;;;;;;;20.37;73.06;100995.40;1729176;82;20956;-41
2021/06/18 00:21:47;;;;;;;4.10;1.60;;;;;;;20.36;73.17;100995.53;1728232;82;20944;-41
2021/06/18 00:24:14;;;;;;;1.40;1.20;;;;;;;20.34;72.92;100994.33;1735913;80;20924;-40
2021/06/18 00:26:41;;;;;;;3.33;1.07;;;;;;;20.29;72.76;100993.90;1727427;80;21007;-42
2021/06/18 00:29:07;;;;;;;3.30;1.30;;;;;;;20.25;72.71;100997.88;1728554;80;21408;-41
2021/06/18 00:31:34;;;;;;;3.30;1.12;;;;;;;20.24;72.99;100990.25;1736155;80;21467;-41
2021/06/18 00:34:00;;;;;;;2.05;1.10;;;;;;;20.23;72.92;100993.09;1738044;82;21009;-40
2021/06/18 00:36:27;;;;;;;2.30;1.70;;;;;;;20.20;72.80;100994.22;1739976;80;20956;-41
2021/06/18 00:38:53;;;;;;;3.33;1.55;;;;;;;20.16;72.80;100987.88;1736645;80;21447;-41
2021/06/18 00:41:20;;;;;;;1.80;1.47;;;;;;;20.14;72.85;100989.89;1734705;80;21467;-38
2021/06/18 00:43:49;;;;;;;2.25;1.35;;;;;;;20.09;72.67;100988.44;1743840;81;20924;-38
2021/06/18 00:46:15;;;;;;;3.30;1.10;;;;;;;20.06;72.75;100988.73;1719789;82;21526;-38
2021/06/18 00:48:43;;;;;;;2.40;1.35;;;;;;;20.02;72.83;100989.14;1737200;80;21003;-37
2021/06/18 00:51:09;;;;;;;2.62;1.05;;;;;;;19.97;72.96;100984.13;1739097;80;21028;-39
2021/06/18 00:53:39;;;;;;;3.35;1.45;;;;;;;19.93;72.68;100986.75;1733348;80;21019;-40
2021/06/18 00:56:06;;;;;;;6.83;1.67;;;;;;;19.85;72.83;100985.23;1742805;82;21499;-39
2021/06/18 00:58:32;;;;;;;2.83;1.37;;;;;;;19.79;72.92;100994.77;1724671;80;20972;-39
2021/06/18 01:00:59;;;;;;;5.62;1.10;;;;;;;19.77;72.90;100992.69;1746158;81;21015;-38
2021/06/18 01:03:26;;;;;;;2.20;1.17;;;;;;;19.75;73.09;100989.76;1734216;80;20968;-40
2021/06/18 01:05:53;;;;;;;2.42;1.02;;;;;;;19.71;73.72;100996.45;1742387;80;20948;-40
2021/06/18 01:08:44;;;;;;;2.22;1.42;;;;;;;19.71;73.99;100989.19;1738219;80;21053;-40
2021/06/18 01:11:33;;;;;;;4.10;1.40;;;;;;;19.67;74.23;100987.73;1734275;80;20979;-39
2021/06/18 01:14:09;;;;;;;5.17;1.20;;;;;;;19.58;73.89;100980.39;1733922;81;20957;-41
2021/06/18 01:16:40;;;;;;;3.42;1.40;;;;;;;19.53;74.20;100985.36;1715433;80;21438;-39
2021/06/18 01:19:29;;;;;;;3.20;1.20;;;;;;;19.48;74.27;100983.56;1739315;81;21800;-40
2021/06/18 01:22:00;;;;;;;3.10;1.20;;;;;;;19.43;74.33;100986.70;1743114;80;20939;-39
2021/06/18 01:25:03;;;;;;;2.80;1.40;;;;;;;19.36;74.47;100990.92;1739902;81;21003;-39
2021/06/18 01:27:35;;;;;;;6.47;2.27;;;;;;;19.32;74.43;100982.70;1744396;81;21002;-40
2021/06/18 01:30:17;;;;;;;2.12;1.50;;;;;;;19.30;74.69;100980.63;1750673;80;21444;-39
2021/06/18 01:32:55;;;;;;;1.60;1.40;;;;;;;19.28;74.95;100983.48;1739846;80;21375;-40
2021/06/18 01:35:21;;;;;;;3.40;1.47;;;;;;;19.28;75.03;100980.78;1742227;81;21006;-42
2021/06/18 01:37:52;;;;;;;2.55;1.40;;;;;;;19.21;74.89;100978.24;1708831;80;21537;-43
2021/06/18 01:40:20;;;;;;;;;;;;;;;19.16;75.22;100989.45;1746881;80;21018;-39
2021/06/18 01:42:48;;;;;;;6.25;1.90;;;;;;;19.14;75.35;100990.57;1741435;80;20164;-40
2021/06/18 01:45:17;;;;;;;2.12;1.65;;;;;;;19.10;75.54;100989.11;1723077;81;20958;-40
2021/06/18 01:47:45;;;;;;;3.25;1.35;;;;;;;19.06;75.91;100984.48;1743016;80;20939;-41
2021/06/18 01:50:16;;;;;;;4.20;1.80;;;;;;;19.03;76.34;100986.95;1739881;80;21584;-40
2021/06/18 01:52:50;;;;;;;2.25;1.37;;;;;;;19.00;76.18;100975.56;1740114;80;20993;-41
2021/06/18 01:55:21;;;;;;;3.77;1.62;;;;;;;18.95;76.26;100976.42;1745870;80;20939;-41
2021/06/18 01:57:47;;;;;;;;;;;;;;;18.92;76.62;100978.90;1747031;80;21505;-40
2021/06/18 02:00:15;;;;;;;4.28;1.40;;;;;;;18.91;76.64;100972.30;1724880;81;20094;-39
2021/06/18 02:02:42;;;;;;;2.22;1.20;;;;;;;18.89;76.54;100977.81;1743073;81;21005;-40
2021/06/18 02:05:09;;;;;;;2.25;1.40;;;;;;;18.88;76.62;100982.02;1741986;81;20946;-37
2021/06/18 02:07:36;;;;;;;2.12;1.25;;;;;;;18.87;76.79;100979.79;1742997;80;20959;-38
2021/06/18 02:10:06;;;;;;;3.30;1.37;;;;;;;18.87;76.83;100985.69;1745240;80;20942;-37
2021/06/18 02:12:33;;;;;;;2.45;1.27;;;;;;;18.87;76.93;100976.23;1739512;81;20986;-40
2021/06/18 02:15:01;;;;;;;1.40;1.20;;;;;;;18.88;76.85;100972.06;1743912;80;20943;-39
2021/06/18 02:17:28;;;;;;;1.98;1.60;;;;;;;18.89;76.79;100968.36;1742734;80;20954;-39
2021/06/18 02:19:55;;;;;;;3.22;1.05;;;;;;;18.92;76.80;100972.14;1725685;81;20964;-42
2021/06/18 02:22:22;;;;;;;4.42;1.17;;;;;;;18.92;76.12;100974.00;1719261;81;21015;-40
2021/06/18 02:24:49;;;;;;;2.42;1.35;;;;;;;18.92;76.23;100970.80;1748251;81;20963;-41
2021/06/18 02:27:15;;;;;;;4.30;1.80;;;;;;;18.94;76.17;100980.13;1748199;79;20983;-41
2021/06/18 02:29:42;;;;;;;2.58;1.30;;;;;;;18.93;75.60;100979.78;1755576;79;21287;-39
2021/06/18 02:32:12;;;;;;;3.50;1.50;;;;;;;18.91;75.57;100986.66;1743661;81;20975;-38
2021/06/18 02:34:40;;;;;;;3.35;1.30;;;;;;;18.94;75.96;100985.53;1743364;81;20963;-39
2021/06/18 02:37:08;;;;;;;3.62;1.22;;;;;;;18.97;76.11;100990.16;1741416;81;21519;-38
2021/06/18 02:39:34;;;;;;;1.90;1.12;;;;;;;18.99;75.46;100988.70;1751862;79;21483;-41
2021/06/18 02:42:01;;;;;;;2.02;1.10;;;;;;;18.98;75.45;100996.45;1751504;81;20928;-39
2021/06/18 02:44:27;;;;;;;2.92;1.30;;;;;;;18.97;75.33;100999.63;1744016;79;20952;-39
2021/06/18 02:47:20;;;;;;;1.80;1.15;;;;;;;18.96;75.39;100993.88;1743069;79;21419;-39
2021/06/18 02:49:54;;;;;;;2.15;1.07;;;;;;;18.94;75.42;100998.55;1740635;80;20963;-40
2021/06/18 02:52:31;;;;;;;1.87;1.30;;;;;;;18.89;74.80;100995.88;1742823;80;21011;-40
2021/06/18 02:55:04;;;;;;;3.90;1.45;;;;;;;18.85;74.73;100995.30;1739455;79;20983;-42
2021/06/18 02:57:34;;;;;;;1.87;1.30;;;;;;;18.84;75.31;100998.97;1745330;81;20968;-38
2021/06/18 03:00:08;;;;;;;;;;;;;;;18.85;75.06;100989.02;1746099;81;20971;-40
2021/06/18 03:02:45;;;;;;;6.40;1.50;;;;;;;18.84;75.28;100992.72;1745643;81;20122;-42
2021/06/18 03:05:14;;;;;;;3.60;1.15;;;;;;;18.84;75.29;100994.06;1747719;79;20975;-39
2021/06/18 03:07:47;;;;;;;2.98;1.12;;;;;;;18.85;75.54;101004.75;1743854;79;21003;-37
2021/06/18 03:10:16;;;;;;;2.02;1.30;;;;;;;18.86;75.64;100998.84;1745149;81;20972;-36
2021/06/18 03:12:44;;;;;;;2.67;1.25;;;;;;;18.86;75.01;101008.30;1741828;79;20974;-39
2021/06/18 03:15:11;;;;;;;4.42;1.50;;;;;;;18.85;74.65;101001.17;1749871;79;21372;-37
2021/06/18 03:17:41;;;;;;;3.22;1.47;;;;;;;18.82;74.19;101004.98;1740250;79;21007;-38
2021/06/18 03:20:11;;;;;;;2.55;1.52;;;;;;;18.81;74.43;101012.24;1733832;80;20983;-37
2021/06/18 03:22:38;;;;;;;;;;;;;;;18.82;74.50;101010.39;1721467;80;21017;-39
2021/06/18 03:25:06;;;;;;;3.17;1.60;;;;;;;18.81;74.28;101008.69;1738051;80;20122;-39
2021/06/18 03:27:33;;;;;;;3.40;1.22;;;;;;;18.80;74.75;101010.55;1737789;80;20921;-39
2021/06/18 03:29:59;;;;;;;7.00;1.20;;;;;;;18.81;73.92;101012.24;1742434;81;20972;-42
2021/06/18 03:32:26;;;;;;;1.65;0.85;;;;;;;18.83;74.76;101007.22;1741351;81;20921;-41
2021/06/18 03:34:53;;;;;;;3.00;1.12;;;;;;;18.84;75.23;101004.38;1740970;82;21365;-40
2021/06/18 03:37:20;;;;;;;1.42;0.93;;;;;;;18.87;75.52;101014.91;1735499;80;21480;-39
2021/06/18 03:39:47;;;;;;;2.25;1.10;;;;;;;18.87;75.27;101007.30;1741834;81;20960;-38
2021/06/18 03:42:14;;;;;;;4.30;1.22;;;;;;;18.89;75.43;101011.59;1717099;80;20964;-40
2021/06/18 03:44:41;;;;;;;2.33;1.10;;;;;;;18.90;75.70;101009.73;1732804;80;21750;-39
2021/06/18 03:47:08;;;;;;;2.80;1.07;;;;;;;18.95;75.35;101016.48;1718410;80;21865;-38
2021/06/18 03:49:34;;;;;;;3.87;1.27;;;;;;;18.99;74.45;101019.27;1731612;80;20948;-40
2021/06/18 03:52:01;;;;;;;2.22;1.30;;;;;;;19.01;73.99;101019.16;1735770;80;20968;-38
2021/06/18 03:54:32;;;;;;;2.25;1.15;;;;;;;19.03;74.08;101005.88;1740936;80;20985;-39
2021/06/18 03:56:56;;;;;;;3.90;1.37;;;;;;;19.03;74.37;101016.68;1732545;80;20953;-36
2021/06/18 03:59:23;;;;;;;4.12;1.35;;;;;;;19.06;74.89;101003.40;1733859;80;20937;-38
2021/06/18 04:01:52;;;;;;;2.62;1.80;;;;;;;19.08;73.65;101002.78;1733623;80;20971;-37
2021/06/18 04:04:20;;;;;;;3.45;1.42;;;;;;;19.10;74.71;101003.98;1734963;80;20979;-40
2021/06/18 04:06:47;;;;;;;3.85;1.70;;;;;;;19.12;74.52;101015.52;1736845;80;21451;-40
2021/06/18 04:09:15;;;;;;;2.02;1.32;;;;;;;19.15;74.69;101011.19;1740256;80;20988;-38
2021/06/18 04:12:01;;;;;;;4.75;1.92;;;;;;;19.18;75.74;101010.45;1726753;80;20967;-38
2021/06/18 04:14:39;;;;;;;3.15;1.22;;;;;;;19.25;75.75;101022.92;1575550;89;21081;-39
2021/06/18 04:17:06;;;;;;;1.85;1.47;;;;;;;19.32;75.34;101024.61;1573051;89;21490;-36
2021/06/18 04:19:33;;;;;;;1.35;1.00;;;;;;;19.38;74.43;101033.05;1569822;89;21066;-38
2021/06/18 04:22:02;;;;;;;2.02;1.45;;;;;;;19.40;73.66;101026.14;1540674;91;21078;-44
2021/06/18 04:24:28;;;;;;;6.42;2.22;;;;;;;19.40;72.84;101032.91;1558960;90;21035;-40
2021/06/18 04:26:55;;;;;;;3.60;1.45;;;;;;;19.39;72.86;101032.05;1560563;90;23102;-40
2021/06/18 04:29:21;;;;;;;6.10;1.70;;;;;;;19.41;73.06;101032.78;1560941;90;20999;-37
2021/06/18 04:31:48;;;;;;;5.15;1.87;;;;;;;19.45;73.71;101034.71;1560603;90;21068;-40
2021/06/18 04:34:15;;;;;;;3.08;1.30;;;;;;;19.46;72.87;101026.48;1559197;90;21001;-40
2021/06/18 04:36:41;;;;;;;6.42;1.45;;;;;;;19.49;73.83;101029.91;1559812;90;21514;-42
2021/06/18 04:39:08;;;;;;;2.58;1.20;;;;;;;19.51;74.20;101027.43;1559544;90;21042;-39
2021/06/18 04:41:35;;;;;;;2.55;1.47;;;;;;;19.54;73.34;101032.56;1559256;90;21696;-40
2021/06/18 04:44:03;;;;;;;4.30;1.65;;;;;;;19.55;74.10;101028.86;1561606;90;21058;-39
2021/06/18 04:46:31;;;;;;;2.58;1.20;;;;;;;19.57;74.31;101028.73;1560818;90;21018;-39
2021/06/18 04:48:58;;;;;;;1.50;1.07;;;;;;;19.61;73.09;101024.78;1564331;90;20974;-39
2021/06/18 04:51:24;;;;;;;3.25;1.50;;;;;;;19.65;73.74;101027.55;1597607;85;21490;-40
2021/06/18 04:53:54;;;;;;;2.00;1.50;;;;;;;19.71;73.83;101029.77;1689643;83;21394;-40
2021/06/18 04:56:21;;;;;;;7.03;1.70;;;;;;;19.78;74.33;101035.00;1678219;85;21463;-38
2021/06/18 04:58:48;;;;;;;5.28;2.02;;;;;;;19.87;75.10;101038.22;1671334;85;20970;-39
2021/06/18 05:01:14;;;;;;;1.35;0.98;;;;;;;19.94;73.66;101034.98;1673010;85;21022;-38
2021/06/18 05:03:41;;;;;;;3.70;1.32;;;;;;;19.97;73.34;101027.44;1670868;85;20951;-39
2021/06/18 05:06:08;;;;;;;4.15;1.50;;;;;;;20.00;72.77;101024.45;1674725;85;21314;-40
2021/06/18 05:08:35;;;;;;;3.00;1.52;;;;;;;20.03;73.63;101024.20;1676462;84;21318;-39
2021/06/18 05:11:02;;;;;;;3.20;1.17;;;;;;;20.07;72.96;101023.41;1678628;83;20950;-39
2021/06/18 05:13:29;;;;;;;1.98;1.20;;;;;;;20.12;72.84;101018.94;1679494;83;20970;-39
2021/06/18 05:15:55;;;;;;;2.67;1.20;;;;;;;20.16;72.75;101014.47;1682703;83;20967;-43
2021/06/18 05:18:22;;;;;;;2.35;1.57;;;;;;;20.20;71.68;101014.53;1678814;85;21006;-42
2021/06/18 05:20:48;;;;;;;4.90;1.40;;;;;;;20.22;71.07;101016.61;1663500;83;21979;-43
2021/06/18 05:23:15;;;;;;;1.75;1.20;;;;;;;20.25;72.97;101013.61;1660006;84;20991;-41
2021/06/18 05:25:41;;;;;;;4.15;1.72;;;;;;;20.29;72.66;101018.27;1658029;84;21015;-39
2021/06/18 05:28:15;;;;;;;4.20;1.40;;;;;;;20.35;71.52;101014.14;1659875;84;21007;-40
2021/06/18 05:30:54;;;;;;;3.45;1.70;;;;;;;20.41;71.32;101021.69;1659055;84;20992;-38
2021/06/18 05:33:25;;;;;;;5.12;1.30;;;;;;;20.48;72.50;101014.20;1659645;84;20984;-38
2021/06/18 05:35:54;;;;;;;2.98;1.02;;;;;;;20.56;71.37;101009.98;1660195;85;20936;-39
2021/06/18 05:38:20;;;;;;;2.67;0.98;;;;;;;20.63;71.25;101011.97;1661974;84;21015;-39
2021/06/18 05:40:47;;;;;;;2.00;1.10;;;;;;;20.68;70.60;101012.91;1663311;84;20984;-39
2021/06/18 05:43:13;;;;;;;3.25;1.67;;;;;;;20.74;70.15;101019.13;1676237;82;20937;-40
2021/06/18 05:45:40;;;;;;;2.77;1.20;;;;;;;20.78;70.07;101011.55;1714246;82;21467;-42
2021/06/18 05:48:08;;;;;;;2.87;1.62;;;;;;;20.82;70.04;101008.42;1722733;81;20957;-39
2021/06/18 05:50:35;;;;;;;2.95;1.12;;;;;;;20.87;71.28;101007.48;1722010;81;20971;-41
2021/06/18 05:53:02;;;;;;;1.95;1.17;;;;;;;20.96;71.95;101011.17;1721809;82;21094;-39
2021/06/18 05:55:29;;;;;;;3.08;1.30;;;;;;;21.04;71.24;101007.74;1721994;81;20957;-42
2021/06/18 05:57:55;;;;;;;3.67;1.00;;;;;;;21.09;70.26;101005.45;1719620;81;21031;-42
2021/06/18 06:00:22;;;;;;;3.83;2.02;;;;;;;21.14;69.14;101000.45;1725046;82;21543;-42
2021/06/18 06:02:48;;;;;;;2.85;1.30;;;;;;;21.13;67.89;101000.10;1724271;82;20944;-41
2021/06/18 06:05:15;;;;;;;2.33;1.30;;;;;;;21.14;68.16;101001.80;1716674;82;20952;-38
2021/06/18 06:07:48;;;;;;;1.30;0.98;;;;;;;21.14;69.04;100998.61;1722292;81;20953;-40
2021/06/18 06:10:16;;;;;;;2.62;1.15;;;;;;;21.17;67.99;100995.60;1723427;81;20924;-44
2021/06/18 06:12:42;;;;;;;4.00;1.35;;;;;;;21.24;68.96;100999.07;1722579;81;20996;-43
2021/06/18 06:15:10;;;;;;;5.30;1.40;;;;;;;21.28;69.39;100998.64;1724933;81;20968;-41
2021/06/18 06:17:36;;;;;;;5.25;1.25;;;;;;;21.33;70.35;100992.78;1724263;82;20937;-43
2021/06/18 06:20:06;;;;;;;2.00;0.90;;;;;;;21.39;70.49;100988.14;1724502;81;20975;-45
2021/06/18 06:22:36;;;;;;;3.75;1.37;;;;;;;21.47;71.78;100984.21;1732969;80;20964;-44
2021/06/18 06:25:06;;;;;;;3.87;1.75;;;;;;;21.55;70.96;100982.95;1736809;80;21499;-45
2021/06/18 06:27:32;;;;;;;2.62;1.55;;;;;;;21.65;70.48;100988.34;1735322;80;20980;-50
2021/06/18 06:30:38;;;;;;;4.35;1.95;;;;;;;21.71;70.78;100993.16;1736466;80;20944;-47
2021/06/18 06:33:49;;;;;;;2.05;1.00;;;;;;;21.79;69.29;100998.69;1567434;90;21117;-38
2021/06/18 06:36:27;;;;;;;2.15;1.20;;;;;;;21.86;68.05;100997.59;1567811;90;21721;-41
2021/06/18 06:38:54;;;;;;;8.08;1.40;;;;;;;21.92;69.62;101001.05;1569105;90;21049;-49
2021/06/18 06:41:20;;;;;;;3.80;1.10;;;;;;;21.99;70.40;100996.73;1568433;90;21090;-38
2021/06/18 06:43:47;;;;;;;1.40;1.07;;;;;;;22.06;68.12;100996.98;1572042;90;21904;-38
2021/06/18 06:46:13;;;;;;;2.52;1.00;;;;;;;22.11;67.66;100993.82;1573863;90;21005;-38
2021/06/18 06:48:40;;;;;;;5.50;1.47;;;;;;;22.14;69.54;100995.71;1576635;90;21088;-39
2021/06/18 06:51:07;;;;;;;3.22;1.40;;;;;;;22.20;69.00;100993.80;1568937;90;21041;-38
2021/06/18 06:53:34;;;;;;;4.30;1.30;;;;;;;22.30;69.02;100998.28;1564793;90;21069;-40
2021/06/18 06:56:01;;;;;;;2.47;1.05;;;;;;;22.37;69.70;100998.88;1566853;90;21149;-39
2021/06/18 06:58:27;;;;;;;4.10;1.55;;;;;;;22.44;68.17;100997.77;1571362;90;21106;-45
2021/06/18 07:01:13;;;;;;;3.72;2.62;;;;;;;22.51;68.17;100993.42;1563588;90;21119;-42
2021/06/18 07:04:24;;;;;;;1.77;1.00;;;;;;;22.57;66.15;100981.08;1516843;91;21108;-41
2021/06/18 07:06:58;;;;;;;2.90;1.17;;;;;;;22.62;66.86;100979.59;1435671;98;21073;-40
2021/06/18 07:09:25;;;;;;;1.98;1.10;;;;;;;22.69;67.17;100977.11;1427179;98;21382;-40
2021/06/18 07:11:51;;;;;;;2.67;1.37;;;;;;;22.72;64.94;100978.16;1462238;96;21573;-39
2021/06/18 07:14:18;;;;;;;1.62;1.17;;;;;;;22.75;64.34;100976.98;1462789;96;21058;-40
2021/06/18 07:16:46;;;;;;;5.25;1.42;;;;;;;22.74;64.52;100982.93;1462610;96;21010;-40
2021/06/18 07:19:12;;;;;;;1.60;1.10;;;;;;;22.76;63.30;100986.35;1464314;96;21018;-40
2021/06/18 07:21:39;;;;;;;2.22;1.20;;;;;;;22.78;64.54;100983.45;1463465;96;21077;-40
2021/06/18 07:24:06;;;;;;;2.52;1.20;;;;;;;22.83;67.19;100986.55;1461144;97;21070;-39
2021/06/18 07:26:34;;;;;;;5.37;1.00;;;;;;;22.92;67.04;100992.93;1463301;97;21039;-39
2021/06/18 07:29:00;;;;;;;2.20;1.30;;;;;;;23.01;67.81;100999.67;1461343;97;21035;-41
2021/06/18 07:31:27;;;;;;;3.37;1.17;;;;;;;23.09;68.52;100998.88;1457378;97;21550;-40
2021/06/18 07:33:53;;;;;;;2.83;1.27;;;;;;;23.17;64.82;100998.08;1457187;97;21062;-40
2021/06/18 07:36:20;;;;;;;3.58;1.20;;;;;;;23.22;64.19;100991.14;1456575;97;21133;-40
2021/06/18 07:38:48;;;;;;;7.10;1.55;;;;;;;23.25;66.58;100995.41;1457643;97;21043;-39
2021/06/18 07:41:16;;;;;;;4.97;1.20;;;;;;;23.30;64.32;100999.86;1459858;93;21006;-40
2021/06/18 07:43:42;;;;;;;3.25;1.27;;;;;;;23.35;66.73;100995.30;1520293;91;21004;-38
2021/06/18 07:46:09;;;;;;;3.80;1.50;;;;;;;23.41;65.12;100994.16;1541589;91;21025;-43
2021/06/18 07:48:36;;;;;;;4.95;1.40;;;;;;;23.47;65.81;100989.42;1541129;91;21061;-42
2021/06/18 07:51:03;;;;;;;3.33;1.37;;;;;;;23.51;65.10;100994.91;1541391;91;21072;-42
2021/06/18 07:53:30;;;;;;;5.42;1.67;;;;;;;23.58;64.30;100998.33;1550447;91;21566;-43
2021/06/18 07:55:57;;;;;;;3.70;1.30;;;;;;;23.65;66.81;101011.12;1573625;89;20957;-41
2021/06/18 07:58:25;;;;;;;2.55;1.10;;;;;;;23.72;66.40;101010.85;1573641;89;21940;-42
2021/06/18 08:00:52;;;;;;;2.92;1.20;;;;;;;23.78;65.54;101011.22;1576054;89;20962;-42
2021/06/18 08:03:19;;;;;;;1.82;0.72;;;;;;;23.86;67.64;101020.26;1573232;89;21535;-41
2021/06/18 08:05:46;;;;;;;1.80;1.15;;;;;;;23.92;66.84;101012.81;1579269;89;20985;-41
2021/06/18 08:08:13;;;;;;;15.53;1.65;;;;;;;24.00;67.83;101020.67;1575482;89;20973;-42
2021/06/18 08:10:39;;;;;;;4.37;1.20;;;;;;;24.03;66.10;101018.47;1553732;89;21488;-47
2021/06/18 08:13:06;;;;;;;5.33;1.40;;;;;;;24.06;64.43;101014.05;1572683;90;21096;-47
2021/06/18 08:15:32;;;;;;;2.92;1.40;;;;;;;24.09;64.88;101016.46;1575676;89;21010;-48
2021/06/18 08:17:59;;;;;;;3.02;1.32;;;;;;;24.14;62.66;101009.13;1572997;89;21016;-44
2021/06/18 08:20:26;;;;;;;2.60;1.05;;;;;;;24.18;63.17;101009.16;1570472;89;21032;-45
2021/06/18 08:22:54;;;;;;;5.78;2.47;;;;;;;24.25;64.52;101015.65;1563613;90;21066;-47
2021/06/18 08:25:21;;;;;;;5.10;1.77;;;;;;;24.31;66.57;101006.80;1554920;90;21034;-45
2021/06/18 08:27:47;;;;;;;5.60;2.35;;;;;;;24.38;64.16;101004.27;1556116;90;21523;-46
2021/06/18 08:30:15;;;;;;;2.77;2.02;;;;;;;24.44;64.59;101008.19;1558983;90;21017;-45
2021/06/18 08:32:42;;;;;;;2.98;1.22;;;;;;;24.49;65.93;101006.69;1559992;90;21017;-45
2021/06/18 08:35:09;;;;;;;4.78;1.70;;;;;;;24.56;67.70;101002.80;1574016;82;21054;-39
2021/06/18 08:37:35;;;;;;;3.62;1.47;;;;;;;24.60;66.85;100998.20;1675055;82;20959;-41
2021/06/18 08:40:05;;;;;;;9.08;2.98;;;;;;;24.67;67.81;101001.12;1677074;82;20959;-40
2021/06/18 08:42:31;;;;;;;4.17;1.62;;;;;;;24.73;67.35;100996.86;1721288;80;20976;-40
2021/06/18 08:45:17;;;;;;;3.02;1.80;;;;;;;24.77;67.58;101000.44;1727036;81;20960;-40
2021/06/18 08:47:53;;;;;;;2.77;1.30;;;;;;;24.82;63.11;100988.52;1731500;81;20928;-41
2021/06/18 08:50:23;;;;;;;3.02;1.45;;;;;;;24.85;62.25;100983.23;1733873;81;20984;-40
2021/06/18 08:52:53;;;;;;;2.47;1.57;;;;;;;24.87;62.67;100984.40;1735010;81;21082;-41
2021/06/18 08:55:21;;;;;;;3.62;2.08;;;;;;;24.89;65.66;100998.20;1732154;81;20944;-47
2021/06/18 08:57:52;;;;;;;1.50;1.32;;;;;;;24.92;63.76;100993.80;1730252;80;20940;-44
2021/06/18 09:00:22;;;;;;;1.30;1.20;;;;;;;24.96;64.06;100994.30;1731474;82;20920;-40
2021/06/18 09:02:49;;;;;;;4.33;2.60;;;;;;;25.00;64.74;100996.52;1733093;80;21526;-44
2021/06/18 09:05:16;;;;;;;2.17;1.40;;;;;;;25.05;64.43;100995.48;1735611;81;20904;-46
2021/06/18 09:08:02;;;;;;;4.75;1.45;;;;;;;25.11;64.95;101002.64;1733571;80;21027;-42
2021/06/18 09:10:41;;;;;;;2.42;1.70;;;;;;;25.17;64.14;101005.55;1733405;80;21463;-43
2021/06/18 09:13:23;;;;;;;7.80;1.98;;;;;;;25.24;66.12;101002.47;1732142;80;20976;-43
2021/06/18 09:15:55;;;;;;;3.85;1.62;;;;;;;25.32;66.02;101011.15;1733705;80;21368;-42
2021/06/18 09:18:34;;;;;;;5.47;3.33;;;;;;;25.39;65.20;101003.13;1736208;81;20980;-42
2021/06/18 09:21:15;;;;;;;3.22;1.98;;;;;;;25.44;66.41;101013.86;1733196;80;20956;-40
2021/06/18 09:23:48;;;;;;;5.08;2.35;;;;;;;25.48;64.94;101008.40;1731561;80;20991;-44
2021/06/18 09:26:32;;;;;;;3.85;2.00;;;;;;;25.48;62.85;101004.31;1732063;80;20996;-47
2021/06/18 09:29:12;;;;;;;2.70;1.45;;;;;;;25.47;62.78;101002.58;1733406;80;21004;-58
2021/06/18 09:31:59;;;;;;;4.72;1.30;;;;;;;25.45;62.48;101003.30;1728102;80;20999;-43
2021/06/18 09:34:42;;;;;;;4.83;1.50;;;;;;;25.44;62.11;100996.64;1721599;81;21510;-49
2021/06/18 09:37:30;;;;;;;1.67;1.10;;;;;;;25.48;64.24;100998.00;1731440;81;21384;-44
2021/06/18 09:40:14;;;;;;;2.20;1.00;;;;;;;25.57;66.55;100994.20;1731151;80;20940;-43
2021/06/18 09:42:53;;;;;;;1.67;1.17;;;;;;;25.64;65.50;100989.75;1730270;80;20948;-47
2021/06/18 09:45:25;;;;;;;1.80;1.20;;;;;;;25.72;63.18;100983.92;1736258;80;20960;-48
2021/06/18 09:47:52;;;;;;;8.85;4.45;;;;;;;25.75;62.91;100985.77;1729448;82;21003;-53
2021/06/18 09:50:27;;;;;;;3.30;1.90;;;;;;;25.79;62.93;100977.58;1730762;80;20960;-48
2021/06/18 09:53:12;;;;;;;2.27;1.60;;;;;;;25.86;64.27;100983.22;1736339;80;21594;-41
2021/06/18 09:55:45;;;;;;;5.40;1.10;;;;;;;25.90;64.36;100977.23;1726860;80;20943;-41
2021/06/18 09:58:12;;;;;;;5.92;1.52;;;;;;;25.94;62.98;100974.98;1731512;81;20975;-45
2021/06/18 10:00:39;;;;;;;3.42;1.60;;;;;;;25.96;63.43;100976.19;1735233;81;21403;-45
2021/06/18 10:03:11;;;;;;;2.35;1.32;;;;;;;25.97;63.54;100963.70;1728925;80;20952;-42
2021/06/18 10:05:39;;;;;;;3.05;1.20;;;;;;;26.00;65.36;100970.16;1734301;80;21440;-47
2021/06/18 10:08:06;;;;;;;4.95;1.60;;;;;;;26.01;63.42;100963.69;1738898;80;20982;-42
2021/06/18 10:10:35;;;;;;;4.35;1.35;;;;;;;26.03;62.40;100962.12;1732051;82;20996;-40
2021/06/18 10:13:04;;;;;;;4.97;1.85;;;;;;;26.04;61.84;100962.47;1734153;80;21246;-38
2021/06/18 10:15:32;;;;;;;2.05;1.30;;;;;;;26.05;61.87;100967.73;1733187;80;20940;-40
2021/06/18 10:17:59;;;;;;;2.83;1.62;;;;;;;26.09;61.94;100965.52;1731106;80;21044;-40
2021/06/18 10:20:28;;;;;;;4.05;1.37;;;;;;;26.11;62.31;100967.04;1740401;81;21000;-41
2021/06/18 10:23:10;;;;;;;4.00;2.10;;;;;;;26.15;62.45;100957.95;1749568;80;20949;-39
2021/06/18 10:25:50;;;;;;;2.92;2.05;;;;;;;26.20;63.73;100958.27;1755049;80;20953;-39
2021/06/18 10:28:29;;;;;;;4.30;1.52;;;;;;;26.28;63.95;100960.97;1743936;80;20997;-41
2021/06/18 10:30:57;;;;;;;2.62;1.60;;;;;;;26.36;62.69;100961.42;1758938;80;20953;-39
2021/06/18 10:33:31;;;;;;;1.92;1.40;;;;;;;26.45;62.84;100958.95;1744191;80;20976;-39
2021/06/18 10:36:13;;;;;;;2.92;1.67;;;;;;;26.52;64.12;100967.28;1739898;80;20972;-40
2021/06/18 10:38:46;;;;;;;2.17;1.30;;;;;;;26.58;62.88;100963.84;1749910;80;21503;-40
2021/06/18 10:41:21;;;;;;;3.27;1.50;;;;;;;26.62;61.66;100962.97;1743898;80;20965;-39
2021/06/18 10:43:57;;;;;;;2.75;1.77;;;;;;;26.62;59.59;100961.60;1738870;80;21742;-41
2021/06/18 10:46:36;;;;;;;3.75;1.80;;;;;;;26.61;60.22;100959.88;1740784;80;21012;-40
2021/06/18 10:49:14;;;;;;;1.95;1.70;;;;;;;26.60;60.72;100962.30;1738612;80;21440;-39
2021/06/18 10:51:49;;;;;;;3.15;1.42;;;;;;;26.63;62.15;100958.67;1739482;80;21382;-43
2021/06/18 10:54:34;;;;;;;6.30;1.70;;;;;;;26.71;59.03;100950.91;1738872;80;21013;-42
2021/06/18 10:57:15;;;;;;;3.62;1.35;;;;;;;26.75;59.86;100946.78;1740170;80;20976;-43
2021/06/18 10:59:48;;;;;;;3.40;1.32;;;;;;;26.80;60.70;100934.77;1740700;80;20996;-42
2021/06/18 11:02:26;;;;;;;3.05;1.37;;;;;;;26.86;59.85;100940.02;1739167;80;20998;-40
2021/06/18 11:05:01;;;;;;;10.48;2.50;;;;;;;26.90;61.01;100935.36;1743754;80;21452;-42
2021/06/18 11:07:35;;;;;;;2.77;1.90;;;;;;;26.95;62.10;100938.38;1741368;80;20961;-42
2021/06/18 11:10:15;;;;;;;3.55;1.62;;;;;;;27.01;59.43;100935.94;1746063;81;20969;-42
2021/06/18 11:12:49;;;;;;;2.50;1.37;;;;;;;27.04;59.54;100932.83;1744802;80;21468;-41
2021/06/18 11:15:24;;;;;;;2.30;1.82;;;;;;;27.07;60.04;100933.31;1746520;80;20988;-44
2021/06/18 11:18:18;;;;;;;2.60;1.70;;;;;;;27.08;59.12;100932.80;1748825;80;21008;-41
2021/06/18 11:20:49;;;;;;;2.00;1.40;;;;;;;27.08;59.44;100927.32;1749197;80;20976;-41
2021/06/18 11:23:24;;;;;;;2.60;1.80;;;;;;;27.09;57.77;100920.30;1737954;80;20982;-41
2021/06/18 11:26:05;;;;;;;3.00;1.65;;;;;;;27.13;58.10;100925.72;1734795;80;20967;-42
2021/06/18 11:28:34;;;;;;;;;;;;;;;27.15;58.72;100920.91;1737098;80;21412;-42
2021/06/18 11:31:37;;;;;;;3.22;1.60;;;;;;;27.18;59.29;100923.30;1737251;80;20086;-41
2021/06/18 11:34:04;;;;;;;2.75;1.75;;;;;;;27.19;59.26;100914.06;1728342;80;20971;-40
2021/06/18 11:36:39;;;;;;;2.72;1.50;;;;;;;27.20;59.09;100917.64;1726206;80;20952;-39
2021/06/18 11:39:16;;;;;;;2.75;1.52;;;;;;;27.22;59.36;100922.95;1728322;80;20960;-40
2021/06/18 11:41:48;;;;;;;3.22;1.45;;;;;;;27.24;58.12;100910.77;1733202;80;20912;-40
2021/06/18 11:44:21;;;;;;;5.08;1.72;;;;;;;27.27;58.81;100914.49;1730034;81;21451;-40